sensor_id;sensor_type;location;lat;lon;timestamp;pressure;altitude;pressure_sealevel;temperature;humidity
68489;BME280;55481;48.764;8.936;2023-03-01T00:04:44;97720;;;-3;70
68489;BME280;55481;48.764;8.936;2023-03-01T00:07:15;97720;;;-3;70
68489;BME280;55481;48.764;8.936;2023-03-01T00:12:16;97720;;;-3;70
68489;BME280;55481;48.764;8.936;2023-03-01T00:14:56;97720;;;-3;70
68489;BME280;55481;48.764;8.936;2023-03-01T00:17:26;97720;;;-2.9;69.5
68489;BME280;55481;48.764;8.936;2023-03-01T00:22:37;97720;;;-3.1;70
68489;BME280;55481;48.764;8.936;2023-03-01T00:25:08;97720;;;-3.1;70.5
68489;BME280;55481;48.764;8.936;2023-03-01T00:27:29;97730;;;-3.1;70.5
68489;BME280;55481;48.764;8.936;2023-03-01T00:30:00;97720;;;-3.2;70.5
68489;BME280;55481;48.764;8.936;2023-03-01T00:32:32;97730;;;-3.2;70.5
68489;BME280;55481;48.764;8.936;2023-03-01T00:37:21;97720;;;-3.2;70.5
68489;BME280;55481;48.764;8.936;2023-03-01T00:39:50;97730;;;-3.3;70.5
68489;BME280;55481;48.764;8.936;2023-03-01T00:42:30;97720;;;-3.2;70.5
68489;BME280;55481;48.764;8.936;2023-03-01T00:45:00;97720;;;-3.1;70
68489;BME280;55481;48.764;8.936;2023-03-01T00:49:40;97720;;;-3.2;70.5
68489;BME280;55481;48.764;8.936;2023-03-01T00:54:41;97710;;;-3.3;70.5
68489;BME280;55481;48.764;8.936;2023-03-01T00:57:11;97710;;;-3.3;70.5
68489;BME280;55481;48.764;8.936;2023-03-01T00:59:42;97710;;;-3.2;70
68489;BME280;55481;48.764;8.936;2023-03-01T01:07:13;97710;;;-3.2;70
68489;BME280;55481;48.764;8.936;2023-03-01T01:09:44;97700;;;-3.3;70
68489;BME280;55481;48.764;8.936;2023-03-01T01:12:25;97710;;;-3.2;70
68489;BME280;55481;48.764;8.936;2023-03-01T01:14:55;97710;;;-3.2;70
68489;BME280;55481;48.764;8.936;2023-03-01T01:17:26;97700;;;-3.2;70
68489;BME280;55481;48.764;8.936;2023-03-01T01:20:05;97700;;;-3.2;70
68489;BME280;55481;48.764;8.936;2023-03-01T01:22:14;97700;;;-3;70
68489;BME280;55481;48.764;8.936;2023-03-01T01:29:46;97700;;;-2.8;69
68489;BME280;55481;48.764;8.936;2023-03-01T01:34:47;97680;;;-2.7;69
68489;BME280;55481;48.764;8.936;2023-03-01T01:37:17;97680;;;-2.7;69
68489;BME280;55481;48.764;8.936;2023-03-01T01:39:48;97680;;;-2.7;69.5
68489;BME280;55481;48.764;8.936;2023-03-01T01:42:21;97670;;;-2.7;69.5
68489;BME280;55481;48.764;8.936;2023-03-01T01:45:15;97670;;;-2.8;69.5
68489;BME280;55481;48.764;8.936;2023-03-01T01:47:20;97680;;;-3.1;70
68489;BME280;55481;48.764;8.936;2023-03-01T02:02:32;97660;;;-3.1;70
68489;BME280;55481;48.764;8.936;2023-03-01T02:07:33;97660;;;-3.1;70.5
68489;BME280;55481;48.764;8.936;2023-03-01T02:10:04;97660;;;-3.2;70.5
68489;BME280;55481;48.764;8.936;2023-03-01T02:12:33;97660;;;-3.1;70.5
68489;BME280;55481;48.764;8.936;2023-03-01T02:15:12;97660;;;-3.1;70
68489;BME280;55481;48.764;8.936;2023-03-01T02:22:24;97650;;;-3.1;70.5
68489;BME280;55481;48.764;8.936;2023-03-01T02:25:58;97650;;;-3.1;70
68489;BME280;55481;48.764;8.936;2023-03-01T02:27:26;97640;;;-3;70
68489;BME280;55481;48.764;8.936;2023-03-01T02:29:55;97640;;;-3.2;70.5
68489;BME280;55481;48.764;8.936;2023-03-01T02:32:25;97640;;;-3.2;70.5
68489;BME280;55481;48.764;8.936;2023-03-01T02:34:55;97640;;;-3.1;70.5
68489;BME280;55481;48.764;8.936;2023-03-01T02:37:26;97630;;;-3;70.5
68489;BME280;55481;48.764;8.936;2023-03-01T02:45:09;97620;;;-2.6;70
68489;BME280;55481;48.764;8.936;2023-03-01T02:47:39;97620;;;-2.5;69.5
68489;BME280;55481;48.764;8.936;2023-03-01T02:50:15;97610;;;-2.5;69.5
68489;BME280;55481;48.764;8.936;2023-03-01T02:54:59;97610;;;-2.5;70
68489;BME280;55481;48.764;8.936;2023-03-01T03:02:29;97600;;;-2.3;70
68489;BME280;55481;48.764;8.936;2023-03-01T03:05:00;97600;;;-2.1;69.5
68489;BME280;55481;48.764;8.936;2023-03-01T03:07:31;97600;;;-2.1;69.5
68489;BME280;55481;48.764;8.936;2023-03-01T03:12:43;97590;;;-2.2;70
68489;BME280;55481;48.764;8.936;2023-03-01T03:15:12;97590;;;-2.1;70
68489;BME280;55481;48.764;8.936;2023-03-01T03:17:43;97590;;;-2;69.5
68489;BME280;55481;48.764;8.936;2023-03-01T03:20:13;97590;;;-1.9;69.5
68489;BME280;55481;48.764;8.936;2023-03-01T03:22:33;97590;;;-1.8;69.5
68489;BME280;55481;48.764;8.936;2023-03-01T03:25:02;97590;;;-1.7;69
68489;BME280;55481;48.764;8.936;2023-03-01T03:27:33;97580;;;-1.6;69
68489;BME280;55481;48.764;8.936;2023-03-01T03:35:06;97570;;;-1.7;69.5
68489;BME280;55481;48.764;8.936;2023-03-01T03:37:37;97570;;;-1.6;69.5
68489;BME280;55481;48.764;8.936;2023-03-01T03:40:06;97570;;;-1.6;69.5
68489;BME280;55481;48.764;8.936;2023-03-01T03:42:37;97570;;;-1.6;69.5
68489;BME280;55481;48.764;8.936;2023-03-01T03:47:49;97570;;;-1.8;70
68489;BME280;55481;48.764;8.936;2023-03-01T03:50:19;97570;;;-1.6;70
68489;BME280;55481;48.764;8.936;2023-03-01T03:52:49;97580;;;-1.6;70
68489;BME280;55481;48.764;8.936;2023-03-01T03:55:08;97580;;;-1.7;70
68489;BME280;55481;48.764;8.936;2023-03-01T03:57:39;97570;;;-1.7;70
68489;BME280;55481;48.764;8.936;2023-03-01T04:00:11;97570;;;-1.5;70
68489;BME280;55481;48.764;8.936;2023-03-01T04:02:40;97560;;;-1.6;70
68489;BME280;55481;48.764;8.936;2023-03-01T04:07:40;97560;;;-1.5;70
68489;BME280;55481;48.764;8.936;2023-03-01T04:10:12;97560;;;-1.5;70
68489;BME280;55481;48.764;8.936;2023-03-01T04:17:43;97550;;;-1.5;70
68489;BME280;55481;48.764;8.936;2023-03-01T04:20:14;97550;;;-1.4;70
68489;BME280;55481;48.764;8.936;2023-03-01T04:22:43;97550;;;-1.4;70
68489;BME280;55481;48.764;8.936;2023-03-01T04:25:13;97550;;;-1.4;70
68489;BME280;55481;48.764;8.936;2023-03-01T04:27:44;97540;;;-1.5;70
68489;BME280;55481;48.764;8.936;2023-03-01T04:30:14;97550;;;-1.4;70
68489;BME280;55481;48.764;8.936;2023-03-01T04:32:45;97540;;;-1.5;70
68489;BME280;55481;48.764;8.936;2023-03-01T04:35:16;97540;;;-1.4;70
68489;BME280;55481;48.764;8.936;2023-03-01T04:37:57;97540;;;-1.3;70
68489;BME280;55481;48.764;8.936;2023-03-01T04:40:27;97540;;;-1.4;70
68489;BME280;55481;48.764;8.936;2023-03-01T04:42:57;97530;;;-1.4;70
68489;BME280;55481;48.764;8.936;2023-03-01T04:45:37;97550;;;-1.4;70
68489;BME280;55481;48.764;8.936;2023-03-01T04:53:19;97550;;;-1.3;70
68489;BME280;55481;48.764;8.936;2023-03-01T04:58:11;97540;;;-1.3;70
68489;BME280;55481;48.764;8.936;2023-03-01T05:03:15;97540;;;-1.2;70
68489;BME280;55481;48.764;8.936;2023-03-01T05:05:44;97540;;;-1.2;70
68489;BME280;55481;48.764;8.936;2023-03-01T05:08:14;97540;;;-1.1;70
68489;BME280;55481;48.764;8.936;2023-03-01T05:10:46;97540;;;-1.1;69.5
68489;BME280;55481;48.764;8.936;2023-03-01T05:13:26;97540;;;-1.2;70
68489;BME280;55481;48.764;8.936;2023-03-01T05:18:15;97540;;;-1.3;70
68489;BME280;55481;48.764;8.936;2023-03-01T05:20:52;97530;;;-1.3;70
68489;BME280;55481;48.764;8.936;2023-03-01T05:23:25;97540;;;-1.2;70
68489;BME280;55481;48.764;8.936;2023-03-01T05:33:21;97530;;;-1.2;70
68489;BME280;55481;48.764;8.936;2023-03-01T05:35:51;97530;;;-1.2;70
68489;BME280;55481;48.764;8.936;2023-03-01T05:38:20;97530;;;-1.2;70
68489;BME280;55481;48.764;8.936;2023-03-01T05:40:50;97530;;;-1.1;70
68489;BME280;55481;48.764;8.936;2023-03-01T05:43:29;97540;;;-1.1;70
68489;BME280;55481;48.764;8.936;2023-03-01T05:46:00;97540;;;-1.1;70
68489;BME280;55481;48.764;8.936;2023-03-01T05:50:42;97540;;;-1.1;70
68489;BME280;55481;48.764;8.936;2023-03-01T05:53:12;97540;;;-1.2;70
68489;BME280;55481;48.764;8.936;2023-03-01T05:58:33;97540;;;-1.2;70.5
68489;BME280;55481;48.764;8.936;2023-03-01T06:00:53;97540;;;-1.1;70
68489;BME280;55481;48.764;8.936;2023-03-01T06:03:26;97530;;;-1.2;70.5
68489;BME280;55481;48.764;8.936;2023-03-01T06:08:14;97530;;;-1.1;70
68489;BME280;55481;48.764;8.936;2023-03-01T06:10:45;97530;;;-1;70
68489;BME280;55481;48.764;8.936;2023-03-01T06:13:14;97530;;;-1.1;70
68489;BME280;55481;48.764;8.936;2023-03-01T06:23:28;97530;;;-0.9;70
68489;BME280;55481;48.764;8.936;2023-03-01T06:25:58;97530;;;-0.8;69.5
68489;BME280;55481;48.764;8.936;2023-03-01T06:28:28;97530;;;-0.9;69.5
68489;BME280;55481;48.764;8.936;2023-03-01T06:41:01;97520;;;-1;70
68489;BME280;55481;48.764;8.936;2023-03-01T06:43:32;97530;;;-1;70
68489;BME280;55481;48.764;8.936;2023-03-01T06:46:03;97520;;;-1.1;70
68489;BME280;55481;48.764;8.936;2023-03-01T06:51:12;97520;;;-1.1;70
68489;BME280;55481;48.764;8.936;2023-03-01T06:53:34;97520;;;-1;70
68489;BME280;55481;48.764;8.936;2023-03-01T06:56:07;97520;;;-0.9;69.5
68489;BME280;55481;48.764;8.936;2023-03-01T06:58:36;97520;;;-0.8;69.5
68489;BME280;55481;48.764;8.936;2023-03-01T07:01:06;97520;;;-0.9;70
68489;BME280;55481;48.764;8.936;2023-03-01T07:03:37;97520;;;-0.8;70
68489;BME280;55481;48.764;8.936;2023-03-01T07:08:35;97520;;;-0.7;69.5
68489;BME280;55481;48.764;8.936;2023-03-01T07:11:05;97520;;;-0.8;70
68489;BME280;55481;48.764;8.936;2023-03-01T07:13:25;97520;;;-0.9;70
68489;BME280;55481;48.764;8.936;2023-03-01T07:21:17;97510;;;-0.7;69.5
68489;BME280;55481;48.764;8.936;2023-03-01T07:23:38;97510;;;-0.6;69.5
68489;BME280;55481;48.764;8.936;2023-03-01T07:26:09;97510;;;-0.4;69
68489;BME280;55481;48.764;8.936;2023-03-01T07:28:39;97500;;;-0.4;69
68489;BME280;55481;48.764;8.936;2023-03-01T07:31:11;97500;;;-0.3;69
68489;BME280;55481;48.764;8.936;2023-03-01T07:38:30;97500;;;-0.3;69.5
68489;BME280;55481;48.764;8.936;2023-03-01T07:41:09;97490;;;-0.2;69
68489;BME280;55481;48.764;8.936;2023-03-01T07:51:02;97490;;;-0.2;69.5
68489;BME280;55481;48.764;8.936;2023-03-01T07:53:33;97490;;;-0.2;69.5
68489;BME280;55481;48.764;8.936;2023-03-01T07:56:03;97490;;;-0.2;69
68489;BME280;55481;48.764;8.936;2023-03-01T08:01:14;97480;;;0.1;68.5
68489;BME280;55481;48.764;8.936;2023-03-01T08:03:43;97470;;;0.1;69
68489;BME280;55481;48.764;8.936;2023-03-01T08:06:15;97470;;;0.1;69
68489;BME280;55481;48.764;8.936;2023-03-01T08:13:34;97470;;;0.6;68.5
68489;BME280;55481;48.764;8.936;2023-03-01T08:21:07;97480;;;0.7;68.5
68489;BME280;55481;48.764;8.936;2023-03-01T08:23:36;97480;;;0.5;69
68489;BME280;55481;48.764;8.936;2023-03-01T08:26:07;97480;;;0.7;69
68489;BME280;55481;48.764;8.936;2023-03-01T08:28:45;97470;;;0.8;68.5
68489;BME280;55481;48.764;8.936;2023-03-01T08:33:48;97470;;;0.9;68.5
68489;BME280;55481;48.764;8.936;2023-03-01T08:41:19;97460;;;1.2;68.5
68489;BME280;55481;48.764;8.936;2023-03-01T08:43:49;97460;;;1.5;68
68489;BME280;55481;48.764;8.936;2023-03-01T08:46:20;97460;;;1.6;67.5
68489;BME280;55481;48.764;8.936;2023-03-01T08:48:39;97450;;;1.7;67.5
68489;BME280;55481;48.764;8.936;2023-03-01T08:56:31;97450;;;1.7;68
68489;BME280;55481;48.764;8.936;2023-03-01T08:58:51;97450;;;1.8;68
68489;BME280;55481;48.764;8.936;2023-03-01T09:03:43;97440;;;2.1;67.5
68489;BME280;55481;48.764;8.936;2023-03-01T09:06:11;97430;;;2.3;67.5
68489;BME280;55481;48.764;8.936;2023-03-01T09:08:42;97430;;;2.7;67
68489;BME280;55481;48.764;8.936;2023-03-01T09:13:32;97430;;;2.7;67
68489;BME280;55481;48.764;8.936;2023-03-01T09:16:02;97430;;;2.8;67
68489;BME280;55481;48.764;8.936;2023-03-01T09:19:03;97420;;;2.7;67.5
68489;BME280;55481;48.764;8.936;2023-03-01T09:21:44;97420;;;2.8;67.5
68489;BME280;55481;48.764;8.936;2023-03-01T09:23:56;97400;;;3.1;67
68489;BME280;55481;48.764;8.936;2023-03-01T09:31:28;97390;;;3.2;67
68489;BME280;55481;48.764;8.936;2023-03-01T09:33:59;97390;;;3.5;66.5
68489;BME280;55481;48.764;8.936;2023-03-01T09:36:29;97380;;;3.5;66.5
68489;BME280;55481;48.764;8.936;2023-03-01T09:41:38;97390;;;3.5;67
68489;BME280;55481;48.764;8.936;2023-03-01T09:44:00;97390;;;3.5;67
68489;BME280;55481;48.764;8.936;2023-03-01T09:49:11;97400;;;3.4;67.5
68489;BME280;55481;48.764;8.936;2023-03-01T09:51:32;97390;;;3.4;67.5
68489;BME280;55481;48.764;8.936;2023-03-01T09:56:22;97390;;;3.7;67
68489;BME280;55481;48.764;8.936;2023-03-01T09:58:54;97380;;;3.5;67
68489;BME280;55481;48.764;8.936;2023-03-01T10:16:40;97370;;;4.2;66.5
68489;BME280;55481;48.764;8.936;2023-03-01T10:19:16;97360;;;4.1;66.5
68489;BME280;55481;48.764;8.936;2023-03-01T10:21:36;97360;;;4;67
68489;BME280;55481;48.764;8.936;2023-03-01T10:23:54;97360;;;4.4;66.5
68489;BME280;55481;48.764;8.936;2023-03-01T10:33:55;97350;;;4.4;66.5
68489;BME280;55481;48.764;8.936;2023-03-01T10:36:26;97350;;;4.3;67
68489;BME280;55481;48.764;8.936;2023-03-01T10:38:57;97350;;;4.4;66.5
68489;BME280;55481;48.764;8.936;2023-03-01T10:43:47;97340;;;4.7;66
68489;BME280;55481;48.764;8.936;2023-03-01T10:46:32;97340;;;5.1;65.5
68489;BME280;55481;48.764;8.936;2023-03-01T10:48:53;97330;;;5.3;65
68489;BME280;55481;48.764;8.936;2023-03-01T10:51:17;97330;;;5;65.5
68489;BME280;55481;48.764;8.936;2023-03-01T10:53:48;97330;;;5.1;66
68489;BME280;55481;48.764;8.936;2023-03-01T10:56:17;97330;;;5;66
68489;BME280;55481;48.764;8.936;2023-03-01T10:59:04;97340;;;4.9;66
68489;BME280;55481;48.764;8.936;2023-03-01T11:01:26;97340;;;4.8;66.5
68489;BME280;55481;48.764;8.936;2023-03-01T11:04:20;97330;;;5.1;66
68489;BME280;55481;48.764;8.936;2023-03-01T11:11:22;97300;;;5.2;65.5
68489;BME280;55481;48.764;8.936;2023-03-01T11:13:53;97300;;;5.3;65.5
68489;BME280;55481;48.764;8.936;2023-03-01T11:24:40;97290;;;5.5;65.5
68489;BME280;55481;48.764;8.936;2023-03-01T11:26:47;97290;;;5.6;65.5
68489;BME280;55481;48.764;8.936;2023-03-01T11:31:46;97290;;;5.6;66
68489;BME280;55481;48.764;8.936;2023-03-01T11:34:09;97280;;;5.7;65.5
68489;BME280;55481;48.764;8.936;2023-03-01T11:36:48;97290;;;5.8;65.5
68489;BME280;55481;48.764;8.936;2023-03-01T11:39:17;97270;;;5.9;65.5
68489;BME280;55481;48.764;8.936;2023-03-01T11:41:26;97260;;;6.1;65.5
68489;BME280;55481;48.764;8.936;2023-03-01T11:43:57;97250;;;6.4;65
68489;BME280;55481;48.764;8.936;2023-03-01T11:46:29;97240;;;8.5;61
68489;BME280;55481;48.764;8.936;2023-03-01T11:56:29;97210;;;14.6;48.5
68489;BME280;55481;48.764;8.936;2023-03-01T12:04:51;97200;;;14.3;50.5
68489;BME280;55481;48.764;8.936;2023-03-01T12:09:27;97180;;;14.8;50.5
68489;BME280;55481;48.764;8.936;2023-03-01T12:12:05;97180;;;14.9;50.5
68489;BME280;55481;48.764;8.936;2023-03-01T12:14:51;97180;;;14.3;51.5
68489;BME280;55481;48.764;8.936;2023-03-01T12:21:56;97170;;;14;53
68489;BME280;55481;48.764;8.936;2023-03-01T12:24:06;97170;;;14.4;52
68489;BME280;55481;48.764;8.936;2023-03-01T12:26:34;97150;;;14.2;52.5
68489;BME280;55481;48.764;8.936;2023-03-01T12:29:21;97150;;;14.2;52.5
68489;BME280;55481;48.764;8.936;2023-03-01T12:32:08;97150;;;14.8;51.5
68489;BME280;55481;48.764;8.936;2023-03-01T12:34:09;97140;;;14.2;52.5
68489;BME280;55481;48.764;8.936;2023-03-01T12:39:17;97130;;;14;53.5
68489;BME280;55481;48.764;8.936;2023-03-01T12:41:43;97140;;;13.4;54.5
68489;BME280;55481;48.764;8.936;2023-03-01T12:49:30;97140;;;13.4;53.5
68489;BME280;55481;48.764;8.936;2023-03-01T12:54:21;97130;;;13;55
68489;BME280;55481;48.764;8.936;2023-03-01T12:56:48;97120;;;13.5;53.5
68489;BME280;55481;48.764;8.936;2023-03-01T12:59:21;97120;;;13.5;53.5
68489;BME280;55481;48.764;8.936;2023-03-01T13:04:13;97110;;;13;54
68489;BME280;55481;48.764;8.936;2023-03-01T13:09:17;97090;;;13.8;53
68489;BME280;55481;48.764;8.936;2023-03-01T13:11:41;97090;;;13.4;53.5
68489;BME280;55481;48.764;8.936;2023-03-01T13:16:40;97090;;;13.8;53.5
68489;BME280;55481;48.764;8.936;2023-03-01T13:19:14;97090;;;14.1;53
68489;BME280;55481;48.764;8.936;2023-03-01T13:21:41;97080;;;14.2;52
68489;BME280;55481;48.764;8.936;2023-03-01T13:27:10;97090;;;13.8;53.5
68489;BME280;55481;48.764;8.936;2023-03-01T13:29:26;97080;;;13.6;54
68489;BME280;55481;48.764;8.936;2023-03-01T13:34:58;97090;;;13.7;53.5
68489;BME280;55481;48.764;8.936;2023-03-01T13:39:28;97090;;;13;54.5
68489;BME280;55481;48.764;8.936;2023-03-01T13:42:00;97100;;;12;56.5
68489;BME280;55481;48.764;8.936;2023-03-01T13:44:27;97110;;;9.6;62.5
68489;BME280;55481;48.764;8.936;2023-03-01T13:46:56;97100;;;10.2;62
68489;BME280;55481;48.764;8.936;2023-03-01T13:49:26;97090;;;11.8;57.5
68489;BME280;55481;48.764;8.936;2023-03-01T13:54:14;97090;;;12.7;54
68489;BME280;55481;48.764;8.936;2023-03-01T13:56:44;97090;;;12;56
68489;BME280;55481;48.764;8.936;2023-03-01T14:02:16;97090;;;12.5;55
68489;BME280;55481;48.764;8.936;2023-03-01T14:04:38;97090;;;12.1;55.5
68489;BME280;55481;48.764;8.936;2023-03-01T14:13:05;97100;;;8.6;63.5
68489;BME280;55481;48.764;8.936;2023-03-01T14:14:30;97090;;;8.6;63.5
68489;BME280;55481;48.764;8.936;2023-03-01T14:17:03;97090;;;9.2;62
68489;BME280;55481;48.764;8.936;2023-03-01T14:22:14;97080;;;11.1;57
68489;BME280;55481;48.764;8.936;2023-03-01T14:24:33;97080;;;11.3;56
68489;BME280;55481;48.764;8.936;2023-03-01T14:29:34;97090;;;11.7;55.5
68489;BME280;55481;48.764;8.936;2023-03-01T14:32:32;97090;;;12;55.5
68489;BME280;55481;48.764;8.936;2023-03-01T14:34:30;97090;;;11.9;55
68489;BME280;55481;48.764;8.936;2023-03-01T14:46:52;97100;;;12.7;53.5
68489;BME280;55481;48.764;8.936;2023-03-01T14:49:23;97090;;;13.2;52.5
68489;BME280;55481;48.764;8.936;2023-03-01T14:51:54;97090;;;13;52.5
68489;BME280;55481;48.764;8.936;2023-03-01T14:54:26;97100;;;13.1;53
68489;BME280;55481;48.764;8.936;2023-03-01T14:59:23;97110;;;12.6;53.5
68489;BME280;55481;48.764;8.936;2023-03-01T15:01:55;97110;;;12.4;55
68489;BME280;55481;48.764;8.936;2023-03-01T15:04:24;97110;;;12.3;54.5
68489;BME280;55481;48.764;8.936;2023-03-01T15:11:55;97110;;;11.8;55
68489;BME280;55481;48.764;8.936;2023-03-01T15:14:27;97110;;;12.1;54.5
68489;BME280;55481;48.764;8.936;2023-03-01T15:16:57;97100;;;12;54
68489;BME280;55481;48.764;8.936;2023-03-01T15:22:29;97100;;;12;54
68489;BME280;55481;48.764;8.936;2023-03-01T15:24:51;97100;;;12.1;53.5
68489;BME280;55481;48.764;8.936;2023-03-01T15:29:41;97110;;;11.9;53.5
68489;BME280;55481;48.764;8.936;2023-03-01T15:32:28;97110;;;11.3;54.5
68489;BME280;55481;48.764;8.936;2023-03-01T15:34:41;97110;;;10.7;55.5
68489;BME280;55481;48.764;8.936;2023-03-01T15:39:34;97110;;;10;57
68489;BME280;55481;48.764;8.936;2023-03-01T15:42:01;97100;;;10.2;56
68489;BME280;55481;48.764;8.936;2023-03-01T15:44:32;97100;;;10.4;55.5
68489;BME280;55481;48.764;8.936;2023-03-01T15:49:38;97110;;;9.9;55.5
68489;BME280;55481;48.764;8.936;2023-03-01T15:52:03;97120;;;9.6;56
68489;BME280;55481;48.764;8.936;2023-03-01T15:54:33;97120;;;9.1;57
68489;BME280;55481;48.764;8.936;2023-03-01T15:57:04;97110;;;9.2;56.5
68489;BME280;55481;48.764;8.936;2023-03-01T16:05:05;97090;;;9.1;56
68489;BME280;55481;48.764;8.936;2023-03-01T16:09:44;97100;;;7.4;58.5
68489;BME280;55481;48.764;8.936;2023-03-01T16:12:02;97100;;;6.8;59.5
68489;BME280;55481;48.764;8.936;2023-03-01T16:14:33;97100;;;6.4;60
68489;BME280;55481;48.764;8.936;2023-03-01T16:17:04;97090;;;6.2;60
68489;BME280;55481;48.764;8.936;2023-03-01T16:19:34;97100;;;6;60
68489;BME280;55481;48.764;8.936;2023-03-01T16:27:19;97110;;;5.8;59.5
68489;BME280;55481;48.764;8.936;2023-03-01T16:32:14;97110;;;5.5;59.5
68489;BME280;55481;48.764;8.936;2023-03-01T16:34:45;97110;;;5.4;59.5
68489;BME280;55481;48.764;8.936;2023-03-01T16:37:16;97120;;;5.3;59.5
68489;BME280;55481;48.764;8.936;2023-03-01T16:42:24;97120;;;5.1;60
68489;BME280;55481;48.764;8.936;2023-03-01T16:44:54;97130;;;5;60
68489;BME280;55481;48.764;8.936;2023-03-01T16:47:24;97130;;;4.9;60
68489;BME280;55481;48.764;8.936;2023-03-01T16:49:54;97130;;;4.8;60
68489;BME280;55481;48.764;8.936;2023-03-01T16:52:24;97130;;;4.7;60
68489;BME280;55481;48.764;8.936;2023-03-01T16:57:18;97120;;;4.6;60
68489;BME280;55481;48.764;8.936;2023-03-01T16:59:52;97120;;;4.6;60
68489;BME280;55481;48.764;8.936;2023-03-01T17:02:20;97130;;;4.6;60
68489;BME280;55481;48.764;8.936;2023-03-01T17:07:16;97140;;;4.4;60
68489;BME280;55481;48.764;8.936;2023-03-01T17:09:46;97140;;;4.3;60
68489;BME280;55481;48.764;8.936;2023-03-01T17:12:16;97150;;;4.3;60
68489;BME280;55481;48.764;8.936;2023-03-01T17:14:47;97150;;;4.2;60
68489;BME280;55481;48.764;8.936;2023-03-01T17:22:20;97160;;;4;60.5
68489;BME280;55481;48.764;8.936;2023-03-01T17:24:51;97170;;;3.9;60.5
68489;BME280;55481;48.764;8.936;2023-03-01T17:27:28;97170;;;3.9;60.5
68489;BME280;55481;48.764;8.936;2023-03-01T17:32:29;97170;;;3.8;60.5
68489;BME280;55481;48.764;8.936;2023-03-01T17:35:00;97180;;;3.7;60.5
68489;BME280;55481;48.764;8.936;2023-03-01T17:39:55;97180;;;3.6;60.5
68489;BME280;55481;48.764;8.936;2023-03-01T17:42:26;97180;;;3.6;60.5
68489;BME280;55481;48.764;8.936;2023-03-01T17:49:58;97190;;;3.5;60.5
68489;BME280;55481;48.764;8.936;2023-03-01T17:52:29;97190;;;3.4;60.5
68489;BME280;55481;48.764;8.936;2023-03-01T17:55:00;97190;;;3.4;60.5
68489;BME280;55481;48.764;8.936;2023-03-01T17:57:33;97190;;;3.4;60.5
68489;BME280;55481;48.764;8.936;2023-03-01T18:02:32;97190;;;3.2;60.5
68489;BME280;55481;48.764;8.936;2023-03-01T18:10:05;97190;;;3.1;60.5
68489;BME280;55481;48.764;8.936;2023-03-01T18:12:48;97190;;;3.1;60.5
68489;BME280;55481;48.764;8.936;2023-03-01T18:15:20;97190;;;3;61
68489;BME280;55481;48.764;8.936;2023-03-01T18:17:42;97190;;;2.9;61
68489;BME280;55481;48.764;8.936;2023-03-01T18:20:13;97190;;;2.9;61
68489;BME280;55481;48.764;8.936;2023-03-01T18:22:44;97190;;;2.9;61
68489;BME280;55481;48.764;8.936;2023-03-01T18:25:18;97190;;;2.9;61
68489;BME280;55481;48.764;8.936;2023-03-01T18:27:52;97190;;;2.8;61
68489;BME280;55481;48.764;8.936;2023-03-01T18:32:48;97190;;;2.8;61
68489;BME280;55481;48.764;8.936;2023-03-01T18:35:22;97190;;;2.7;61
68489;BME280;55481;48.764;8.936;2023-03-01T18:37:56;97190;;;2.6;61
68489;BME280;55481;48.764;8.936;2023-03-01T18:47:54;97180;;;2.4;61.5
68489;BME280;55481;48.764;8.936;2023-03-01T18:50:25;97190;;;2.3;62
68489;BME280;55481;48.764;8.936;2023-03-01T18:52:57;97190;;;2.2;61.5
68489;BME280;55481;48.764;8.936;2023-03-01T18:55:27;97180;;;2.1;62
68489;BME280;55481;48.764;8.936;2023-03-01T18:57:58;97180;;;1.9;62
68489;BME280;55481;48.764;8.936;2023-03-01T19:00:29;97170;;;1.9;62
68489;BME280;55481;48.764;8.936;2023-03-01T19:03:00;97170;;;1.9;62
68489;BME280;55481;48.764;8.936;2023-03-01T19:05:31;97170;;;1.8;62
68489;BME280;55481;48.764;8.936;2023-03-01T19:08:11;97170;;;1.8;62
68489;BME280;55481;48.764;8.936;2023-03-01T19:10:40;97170;;;1.7;62
68489;BME280;55481;48.764;8.936;2023-03-01T19:15:35;97170;;;1.5;62.5
68489;BME280;55481;48.764;8.936;2023-03-01T19:18:06;97170;;;1.5;62.5
68489;BME280;55481;48.764;8.936;2023-03-01T19:20:37;97170;;;1.3;62.5
68489;BME280;55481;48.764;8.936;2023-03-01T19:26:46;97160;;;1.7;63
68489;BME280;55481;48.764;8.936;2023-03-01T19:29:16;97160;;;1.7;62.5
68489;BME280;55481;48.764;8.936;2023-03-01T19:31:47;97160;;;1.5;63
68489;BME280;55481;48.764;8.936;2023-03-01T19:34:18;97160;;;1.4;62.5
68489;BME280;55481;48.764;8.936;2023-03-01T19:36:49;97160;;;1.3;63
68489;BME280;55481;48.764;8.936;2023-03-01T19:39:19;97160;;;1.3;62.5
68489;BME280;55481;48.764;8.936;2023-03-01T19:41:50;97160;;;1.2;63
68489;BME280;55481;48.764;8.936;2023-03-01T19:44:21;97160;;;1.2;63
68489;BME280;55481;48.764;8.936;2023-03-01T19:57:00;97160;;;1;62.5
68489;BME280;55481;48.764;8.936;2023-03-01T19:59:31;97160;;;1;62.5
68489;BME280;55481;48.764;8.936;2023-03-01T20:02:02;97160;;;1;62.5
68489;BME280;55481;48.764;8.936;2023-03-01T20:06:57;97160;;;0.8;63
68489;BME280;55481;48.764;8.936;2023-03-01T20:09:27;97160;;;0.8;63
68489;BME280;55481;48.764;8.936;2023-03-01T20:12:01;97160;;;0.8;62.5
68489;BME280;55481;48.764;8.936;2023-03-01T20:14:29;97170;;;0.8;62.5
68489;BME280;55481;48.764;8.936;2023-03-01T20:22:01;97170;;;0.7;63
68489;BME280;55481;48.764;8.936;2023-03-01T20:27:15;97170;;;0.7;63
68489;BME280;55481;48.764;8.936;2023-03-01T20:29:45;97170;;;0.7;63
68489;BME280;55481;48.764;8.936;2023-03-01T20:32:15;97170;;;0.6;63
68489;BME280;55481;48.764;8.936;2023-03-01T20:37:09;97170;;;0.5;63
68489;BME280;55481;48.764;8.936;2023-03-01T20:39:40;97170;;;0.4;63
68489;BME280;55481;48.764;8.936;2023-03-01T20:42:19;97170;;;0.5;63
68489;BME280;55481;48.764;8.936;2023-03-01T20:47:13;97170;;;0.4;63.5
68489;BME280;55481;48.764;8.936;2023-03-01T20:52:21;97160;;;0.2;63.5
68489;BME280;55481;48.764;8.936;2023-03-01T20:54:51;97160;;;0;64
68489;BME280;55481;48.764;8.936;2023-03-01T20:59:45;97150;;;-0.2;64
68489;BME280;55481;48.764;8.936;2023-03-01T21:02:16;97150;;;-0.2;64
68489;BME280;55481;48.764;8.936;2023-03-01T21:04:47;97150;;;-0.3;64.5
68489;BME280;55481;48.764;8.936;2023-03-01T21:07:18;97150;;;-0.3;64
68489;BME280;55481;48.764;8.936;2023-03-01T21:09:55;97150;;;-0.3;64
68489;BME280;55481;48.764;8.936;2023-03-01T21:12:31;97160;;;-0.3;64
68489;BME280;55481;48.764;8.936;2023-03-01T21:17:20;97150;;;-0.4;64
68489;BME280;55481;48.764;8.936;2023-03-01T21:19:50;97150;;;-0.4;64
68489;BME280;55481;48.764;8.936;2023-03-01T21:24:46;97150;;;-0.4;64
68489;BME280;55481;48.764;8.936;2023-03-01T21:27:17;97140;;;-0.4;64
68489;BME280;55481;48.764;8.936;2023-03-01T21:29:47;97150;;;-0.4;64